.
WxDataArchive / Data Records for 2010-09-30
2010-09-29 September 2010 2010-10-01

Data Records for Thursday, 30 September 2010

Time	Temp	Chill	HIndex	Humid	Dewpt	 Wind 	HiWind	WindDir	Rain 	Barom 
-----	----	-----	------	-----	-----	------	------	-------	-----	----- 
00:00	51.7	51.7	51.7	80	45.7	0	0	---	0.00	29.816 
00:05	52.2	52.2	52.2	79	45.9	0	0	---	0.00	29.816 
00:10	52.6	52.6	52.6	77	45.6	0	0	---	0.00	29.816 
00:15	52.9	52.9	52.9	76	45.5	0	0	---	0.00	29.813 
00:20	53.1	53.1	53.1	75	45.4	0	0	---	0.00	29.813 
00:25	53.2	53.2	53.2	75	45.5	0	0	---	0.00	29.813 
00:30	53.2	53.2	53.2	74	45.1	0	0	---	0.00	29.814 
00:35	53.2	53.2	53.2	75	45.5	0	0	---	0.00	29.814 
00:40	53.2	53.2	53.2	75	45.5	0	0	---	0.00	29.814 
00:45	53.2	53.2	53.2	75	45.5	0	0	---	0.00	29.814 
00:50	53.2	53.2	53.2	76	45.8	0	0	---	0.00	29.814 
00:55	53.1	53.1	53.1	76	45.7	0	0	---	0.00	29.814 
01:00	52.9	52.9	52.9	77	45.9	0	0	---	0.00	29.810 
01:05	52.5	52.5	52.5	77	45.5	0	0	---	0.00	29.810 
01:10	52.3	52.3	52.3	78	45.6	0	0	---	0.00	29.810 
01:15	52.0	52.0	52.0	78	45.4	0	0	---	0.00	29.801 
01:20	51.7	51.7	51.7	79	45.4	0	0	---	0.00	29.801 
01:25	51.4	51.4	51.4	79	45.1	0	0	---	0.00	29.801 
01:30	51.3	51.3	51.3	79	45.0	0	0	---	0.00	29.800 
01:35	51.0	51.0	51.0	80	45.0	0	0	---	0.00	29.800 
01:40	50.8	50.8	50.8	80	44.9	0	0	---	0.00	29.800 
01:45	50.5	50.5	50.5	81	44.9	0	0	---	0.00	29.798 
01:50	50.4	50.4	50.4	81	44.8	0	0	---	0.00	29.798 
01:55	50.2	50.2	50.2	82	44.9	0	0	---	0.00	29.798 
02:00	50.1	50.1	50.1	83	45.1	0	0	---	0.00	29.800 
02:05	49.9	49.9	49.9	83	44.9	0	0	---	0.00	29.800 
02:10	49.8	49.8	49.8	83	44.8	0	0	---	0.00	29.800 
02:15	49.6	49.6	49.6	84	45.0	0	0	---	0.00	29.803 
02:20	49.5	49.5	49.5	84	44.9	0	0	---	0.00	29.803 
02:25	49.5	49.5	49.5	84	44.9	0	0	---	0.00	29.803 
02:30	49.4	49.4	49.4	84	44.8	0	0	---	0.00	29.806 
02:35	49.2	49.2	49.2	84	44.6	0	0	---	0.00	29.806 
02:40	49.1	49.1	49.1	84	44.5	0	0	---	0.00	29.806 
02:45	48.9	48.9	48.9	85	44.6	0	0	---	0.00	29.806 
02:50	48.9	48.9	48.9	85	44.6	0	0	---	0.00	29.806 
02:55	48.8	48.8	48.8	85	44.5	0	0	---	0.00	29.806 
03:00	48.6	48.6	48.6	85	44.3	0	0	---	0.00	29.802 
03:05	48.6	48.6	48.6	86	44.6	0	0	---	0.00	29.802 
03:10	48.5	48.5	48.5	86	44.5	0	0	---	0.00	29.802 
03:15	48.5	48.5	48.5	86	44.5	0	0	---	0.00	29.801 
03:20	48.3	48.3	48.3	87	44.6	0	0	---	0.00	29.801 
03:25	48.3	48.3	48.3	87	44.6	0	0	---	0.00	29.801 
03:30	48.2	48.2	48.2	87	44.5	0	0	---	0.00	29.798 
03:35	48.2	48.2	48.2	87	44.5	0	0	---	0.00	29.798 
03:40	48.0	48.0	48.0	88	44.6	0	0	---	0.00	29.798 
03:45	47.9	47.9	47.9	88	44.5	0	0	---	0.00	29.798 
03:50	47.9	47.9	47.9	88	44.5	0	0	---	0.00	29.798 
03:55	47.9	47.9	47.9	88	44.5	0	0	---	0.00	29.798 
04:00	47.7	47.7	47.7	88	44.3	0	0	---	0.00	29.798 
04:05	47.7	47.7	47.7	88	44.3	0	0	---	0.00	29.798 
04:10	47.7	47.7	47.7	88	44.3	0	0	---	0.00	29.798 
04:15	47.6	47.6	47.6	88	44.2	0	0	---	0.00	29.792 
04:20	47.6	47.6	47.6	88	44.2	0	0	---	0.00	29.792 
04:25	47.4	47.4	47.4	88	44.0	0	0	---	0.00	29.792 
04:30	47.3	47.3	47.3	88	43.9	0	0	---	0.00	29.792 
04:35	47.3	47.3	47.3	89	44.2	0	0	---	0.00	29.792 
04:40	47.1	47.1	47.1	89	44.0	0	0	---	0.00	29.792 
04:45	47.1	47.1	47.1	89	44.0	0	0	---	0.00	29.792 
04:50	47.0	47.0	47.0	89	43.9	0	0	---	0.00	29.792 
04:55	47.0	47.0	47.0	89	43.9	0	0	---	0.00	29.792 
05:00	46.8	46.8	46.8	89	43.7	0	0	---	0.00	29.785 
05:05	46.8	46.8	46.8	89	43.7	0	0	---	0.00	29.785 
05:10	46.7	46.7	46.7	89	43.6	0	0	---	0.00	29.785 
05:15	46.7	46.7	46.7	90	43.9	0	0	---	0.00	29.784 
05:20	46.5	46.5	46.5	90	43.7	0	0	---	0.00	29.784 
05:25	46.5	46.5	46.5	90	43.7	0	0	---	0.00	29.784 
05:30	46.4	46.4	46.4	90	43.6	0	0	---	0.00	29.784 
05:35	46.4	46.4	46.4	90	43.6	0	0	---	0.00	29.784 
05:40	46.2	46.2	46.2	90	43.4	0	0	---	0.00	29.784 
05:45	46.2	46.2	46.2	91	43.7	0	0	---	0.00	29.782 
05:50	46.2	46.2	46.2	91	43.7	0	0	---	0.00	29.782 
05:55	46.2	46.2	46.2	91	43.7	0	0	---	0.00	29.782 
06:00	46.1	46.1	46.1	91	43.6	0	0	---	0.00	29.783 
06:05	46.1	46.1	46.1	91	43.6	0	0	---	0.00	29.783 
06:10	46.1	46.1	46.1	91	43.6	0	0	---	0.00	29.783 
06:15	46.1	46.1	46.1	92	43.9	0	0	---	0.00	29.786 
06:20	46.0	46.0	46.0	92	43.8	0	0	---	0.00	29.786 
06:25	46.0	46.0	46.0	92	43.8	0	0	---	0.00	29.786 
06:30	46.0	46.0	46.0	92	43.8	0	0	---	0.00	29.785 
06:35	46.0	46.0	46.0	92	43.8	0	0	---	0.00	29.785 
06:40	46.0	46.0	46.0	92	43.8	0	0	---	0.00	29.785 
06:45	46.0	46.0	46.0	92	43.8	0	0	---	0.00	29.783 
06:50	46.0	46.0	46.0	92	43.8	0	0	---	0.00	29.783 
06:55	46.0	46.0	46.0	92	43.8	0	0	---	0.00	29.783 
07:00	45.8	45.8	45.8	92	43.6	0	0	---	0.00	29.784 
07:05	46.0	46.0	46.0	92	43.8	0	0	---	0.00	29.784 
07:10	45.8	45.8	45.8	92	43.6	0	0	---	0.00	29.784 
07:15	45.8	45.8	45.8	92	43.6	0	0	---	0.00	29.794 
07:20	45.8	45.8	45.8	92	43.6	0	0	---	0.00	29.794 
07:25	45.8	45.8	45.8	92	43.6	0	0	---	0.00	29.794 
07:30	45.7	45.7	45.7	92	43.5	0	0	---	0.00	29.793 
07:35	45.7	45.7	45.7	92	43.5	0	0	---	0.00	29.793 
07:40	45.7	45.7	45.7	92	43.5	0	0	---	0.00	29.793 
07:45	45.7	45.7	45.7	92	43.5	0	0	---	0.00	29.792 
07:50	45.7	45.7	45.7	93	43.8	0	0	---	0.00	29.792 
07:55	45.7	45.7	45.7	93	43.8	0	0	---	0.00	29.792 
08:00	45.8	45.8	45.8	93	43.9	0	0	---	0.00	29.788 
08:05	45.8	45.8	45.8	93	43.9	0	0	---	0.00	29.788 
08:10	46.0	46.0	46.0	93	44.1	0	0	---	0.00	29.788 
08:15	46.1	46.1	46.1	93	44.2	0	0	---	0.00	29.792 
08:20	46.4	46.4	46.4	93	44.5	0	0	---	0.00	29.792 
08:25	46.5	46.5	46.5	93	44.6	0	0	---	0.00	29.792 
08:30	46.8	46.8	46.8	93	44.9	0	0	---	0.00	29.785 
08:35	47.4	47.4	47.4	94	45.8	0	0	---	0.00	29.785 
08:40	48.3	48.3	48.3	93	46.4	0	0	---	0.00	29.785 
08:45	49.5	49.5	49.5	90	46.7	0	1	270	0.00	29.782 
08:50	50.7	50.7	50.7	85	46.4	0	1	270	0.00	29.782 
08:55	51.7	51.7	51.7	80	45.7	0	1	270	0.00	29.782 
09:00	52.5	52.5	52.5	77	45.5	0	1	270	0.00	29.776 
09:05	53.3	53.3	53.3	74	45.2	0	1	270	0.00	29.776 
09:10	54.2	54.2	54.2	73	45.7	0	1	270	0.00	29.776 
09:15	55.0	55.0	55.0	72	46.1	0	1	270	0.00	29.776 
09:20	55.9	55.9	55.9	71	46.6	0	2	270	0.00	29.776 
09:25	56.7	56.7	56.7	70	47.0	0	1	270	0.00	29.776 
09:30	57.6	57.6	57.6	68	47.1	0	1	270	0.00	29.779 
09:35	58.4	58.4	58.4	68	47.9	0	1	270	0.00	29.779 
09:40	59.3	59.3	59.3	66	47.9	0	2	270	0.00	29.779 
09:45	60.1	60.1	60.1	65	48.3	0	1	270	0.00	29.782 
09:50	60.7	60.7	60.7	66	49.3	0	2	270	0.00	29.782 
09:55	61.5	61.5	61.5	65	49.6	0	1	270	0.00	29.782 
10:00	62.1	62.1	62.1	63	49.3	1	2	270	0.00	29.785 
10:05	62.7	62.7	62.7	63	49.9	1	3	270	0.00	29.785 
10:10	63.5	63.5	63.5	62	50.2	1	3	270	0.00	29.785 
10:15	64.3	64.3	64.3	62	51.0	1	3	270	0.00	29.787 
10:20	64.8	64.8	64.8	62	51.5	1	3	270	0.00	29.787 
10:25	65.2	65.2	65.2	62	51.8	1	3	338	0.00	29.787 
10:30	65.6	65.6	65.6	64	53.1	0	2	338	0.00	29.786 
10:35	66.1	66.1	66.1	63	53.1	0	1	338	0.00	29.786 
10:40	66.4	66.4	66.4	63	53.4	1	4	0	0.00	29.786 
10:45	66.8	66.8	66.8	63	53.8	0	2	22	0.00	29.788 
10:50	67.3	67.3	67.3	62	53.8	1	4	292	0.00	29.788 
10:55	67.1	67.1	67.1	62	53.6	1	4	292	0.00	29.788 
11:00	66.9	66.9	66.9	63	53.9	1	3	292	0.00	29.789 
11:05	66.9	66.9	66.9	64	54.3	1	6	315	0.00	29.789 
11:10	66.9	66.9	66.9	64	54.3	1	6	292	0.00	29.789 
11:15	66.9	66.9	66.9	65	54.7	0	2	292	0.00	29.797 
11:20	67.1	67.1	67.1	64	54.5	1	3	292	0.00	29.797 
11:25	67.3	67.3	67.3	64	54.7	0	2	315	0.00	29.797 
11:30	67.4	67.4	67.4	64	54.8	1	4	292	0.00	29.798 
11:35	67.6	67.6	67.6	63	54.5	1	4	315	0.00	29.798 
11:40	67.6	67.6	67.6	62	54.1	1	4	315	0.00	29.798 
11:45	67.8	67.8	67.8	62	54.3	1	5	338	0.00	29.793 
11:50	67.9	67.9	67.9	62	54.4	1	6	338	0.00	29.793 
11:55	68.3	68.3	68.3	62	54.8	1	3	0	0.00	29.793 
12:00	68.4	68.4	68.4	62	54.9	1	4	315	0.00	29.795 
12:05	68.6	68.6	68.6	61	54.6	1	4	0	0.00	29.795 
12:10	68.8	68.8	68.8	62	55.2	0	1	270	0.00	29.795 
12:15	68.8	68.8	68.8	59	53.9	1	3	338	0.00	29.795 
12:20	68.8	68.8	68.8	61	54.8	1	3	338	0.00	29.795 
12:25	68.8	68.8	68.8	59	53.9	1	3	338	0.00	29.795 
12:30	68.8	68.8	68.8	59	53.9	1	4	270	0.00	29.796 
12:35	68.9	68.9	68.9	58	53.5	1	4	0	0.00	29.796 
12:40	69.1	69.1	69.1	59	54.2	1	4	292	0.00	29.796 
12:45	69.3	69.3	69.3	56	52.9	1	2	292	0.00	29.795 
12:50	70.3	70.3	70.3	55	53.4	1	3	292	0.00	29.795 
12:55	70.9	70.9	70.9	46	49.1	2	5	338	0.00	29.795 
13:00	71.3	71.3	71.3	50	51.7	1	4	338	0.00	29.795 
13:05	71.6	71.6	71.6	49	51.4	0	2	292	0.00	29.795 
13:10	72.1	72.1	72.1	44	49.0	1	5	292	0.00	29.795 
13:15	71.6	71.6	71.6	45	49.1	1	3	292	0.00	29.797 
13:20	71.5	71.5	71.5	46	49.6	1	4	315	0.00	29.797 
13:25	72.0	72.0	72.0	44	48.9	1	3	45	0.00	29.797 
13:30	72.5	72.5	72.5	42	48.1	1	5	22	0.00	29.798 
13:35	72.7	72.7	72.7	41	47.6	2	7	292	0.00	29.798 
13:40	73.0	73.0	73.0	40	47.2	1	4	315	0.00	29.798 
13:45	72.8	72.8	72.8	41	47.7	1	4	0	0.00	29.799 
13:50	73.5	73.5	73.5	40	47.7	2	9	270	0.00	29.799 
13:55	73.5	73.5	73.5	41	48.3	1	4	292	0.00	29.799 
14:00	73.9	73.9	73.9	40	48.0	1	3	315	0.00	29.797 
14:05	74.0	74.0	74.0	37	46.1	1	7	315	0.00	29.797 
14:10	74.2	74.2	74.2	39	47.6	1	5	0	0.00	29.797 
14:15	74.4	74.4	74.4	37	46.4	2	5	338	0.00	29.797 
14:20	74.6	74.6	74.6	35	45.1	1	3	338	0.00	29.797 
14:25	74.6	74.6	74.6	35	45.1	1	3	0	0.00	29.797 
14:30	74.7	74.7	74.7	37	46.7	1	3	0	0.00	29.795 
14:35	74.7	74.7	74.7	36	46.0	1	4	22	0.00	29.795 
14:40	74.6	74.6	74.6	38	47.3	3	9	292	0.00	29.795 
14:45	74.6	74.6	74.6	34	44.4	2	5	292	0.00	29.794 
14:50	74.9	74.9	74.9	35	45.4	1	4	112	0.00	29.794 
14:55	74.7	74.7	74.7	36	46.0	2	6	315	0.00	29.794 
15:00	74.7	74.7	74.7	36	46.0	2	9	292	0.00	29.792 
15:05	74.7	74.7	74.7	35	45.2	2	6	292	0.00	29.792 
15:10	74.9	74.9	74.9	34	44.6	1	3	315	0.00	29.792 
15:15	74.6	74.6	74.6	34	44.4	2	7	292	0.00	29.797 
15:20	74.6	74.6	74.6	35	45.1	1	4	315	0.00	29.797 
15:25	74.7	74.7	74.7	33	43.7	1	5	292	0.00	29.797 
15:30	74.6	74.6	74.6	32	42.8	3	10	292	0.00	29.796 
15:35	74.4	74.4	74.4	32	42.6	3	6	315	0.00	29.796 
15:40	74.4	74.4	74.4	33	43.4	2	6	338	0.00	29.796 
15:45	74.2	74.2	74.2	33	43.2	3	8	292	0.00	29.798 
15:50	74.2	74.2	74.2	33	43.2	3	7	292	0.00	29.798 
15:55	74.2	74.2	74.2	31	41.6	2	5	338	0.00	29.798 
16:00	74.2	74.2	74.2	29	39.9	2	4	338	0.00	29.800 
16:05	74.4	74.4	74.4	31	41.8	2	6	338	0.00	29.800 
16:10	74.2	74.2	74.2	32	42.4	2	7	292	0.00	29.800 
16:15	74.2	74.2	74.2	33	43.2	1	4	292	0.00	29.808 
16:20	74.2	74.2	74.2	33	43.2	2	8	292	0.00	29.808 
16:25	74.2	74.2	74.2	33	43.2	1	4	315	0.00	29.808 
16:30	74.0	74.0	74.0	32	42.3	2	6	315	0.00	29.814 
16:35	73.9	73.9	73.9	32	42.2	2	5	0	0.00	29.814 
16:40	73.9	73.9	73.9	31	41.3	3	11	315	0.00	29.814 
16:45	73.7	73.7	73.7	31	41.2	2	5	338	0.00	29.818 
16:50	73.5	73.5	73.5	31	41.0	2	9	292	0.00	29.818 
16:55	73.7	73.7	73.7	32	42.0	1	5	292	0.00	29.818 
17:00	73.7	73.7	73.7	32	42.0	1	4	292	0.00	29.818 
17:05	73.5	73.5	73.5	33	42.6	2	6	315	0.00	29.818 
17:10	73.2	73.2	73.2	33	42.4	3	6	315	0.00	29.818 
17:15	73.2	73.2	73.2	32	41.6	1	6	0	0.00	29.827 
17:20	73.2	73.2	73.2	32	41.6	2	6	315	0.00	29.827 
17:25	72.8	72.8	72.8	32	41.2	3	7	315	0.00	29.827 
17:30	72.7	72.7	72.7	32	41.1	1	4	338	0.00	29.833 
17:35	72.5	72.5	72.5	32	41.0	2	5	292	0.00	29.833 
17:40	72.5	72.5	72.5	34	42.5	1	4	0	0.00	29.833 
17:45	72.3	72.3	72.3	34	42.3	2	5	315	0.00	29.835 
17:50	72.1	72.1	72.1	35	42.9	2	5	338	0.00	29.835 
17:55	72.0	72.0	72.0	35	42.8	2	6	292	0.00	29.835 
18:00	71.8	71.8	71.8	35	42.7	2	5	315	0.00	29.845 
18:05	71.6	71.6	71.6	36	43.2	1	4	292	0.00	29.845 
18:10	71.5	71.5	71.5	37	43.8	1	4	0	0.00	29.845 
18:15	71.5	71.5	71.5	37	43.8	1	3	0	0.00	29.848 
18:20	71.3	71.3	71.3	37	43.7	1	7	338	0.00	29.848 
18:25	71.1	71.1	71.1	39	44.9	2	5	270	0.00	29.848 
18:30	70.6	70.6	70.6	42	46.4	4	9	292	0.00	29.855 
18:35	70.3	70.3	70.3	43	46.7	2	7	315	0.00	29.855 
18:40	69.9	69.9	69.9	44	47.0	2	5	338	0.00	29.855 
18:45	69.6	69.6	69.6	45	47.3	1	4	292	0.00	29.866 
18:50	69.3	69.3	69.3	44	46.4	2	6	292	0.00	29.866 
18:55	68.9	68.9	68.9	45	46.7	3	6	292	0.00	29.866 
19:00	68.6	68.6	68.6	46	47.0	2	5	292	0.00	29.877 
19:05	68.3	68.3	68.3	46	46.7	2	5	292	0.00	29.877 
19:10	67.8	67.8	67.8	47	46.8	3	6	292	0.00	29.877 
19:15	67.4	67.4	67.4	48	47.0	2	6	315	0.00	29.886 
19:20	67.1	67.1	67.1	48	46.7	3	6	315	0.00	29.886 
19:25	66.6	66.6	66.6	50	47.4	1	4	338	0.00	29.886 
19:30	66.3	66.3	66.3	50	47.1	2	6	315	0.00	29.896 
19:35	66.0	66.0	66.0	51	47.3	1	2	292	0.00	29.896 
19:40	65.5	65.5	65.5	51	46.9	2	6	292	0.00	29.896 
19:45	65.3	65.3	65.3	51	46.7	3	7	292	0.00	29.904 
19:50	65.0	65.0	65.0	52	46.9	1	7	292	0.00	29.904 
19:55	64.7	64.7	64.7	52	46.7	2	6	292	0.00	29.904 
20:00	64.3	64.3	64.3	52	46.3	3	15	292	0.00	29.913 
20:05	64.0	64.0	64.0	53	46.5	2	5	338	0.00	29.913 
20:10	63.7	63.7	63.7	54	46.7	1	4	315	0.00	29.913 
20:15	63.4	63.4	63.4	54	46.5	1	7	315	0.00	29.913 
20:20	63.1	63.1	63.1	55	46.7	1	4	315	0.00	29.913 
20:25	62.9	62.9	62.9	56	47.0	2	5	315	0.00	29.913 
20:30	62.6	62.6	62.6	56	46.7	2	7	292	0.00	29.919 
20:35	62.3	62.3	62.3	56	46.4	2	7	315	0.00	29.919 
20:40	62.1	62.1	62.1	56	46.2	1	4	315	0.00	29.919 
20:45	61.8	61.8	61.8	57	46.4	1	3	315	0.00	29.929 
20:50	61.5	61.5	61.5	58	46.6	1	4	292	0.00	29.929 
20:55	61.2	61.2	61.2	58	46.3	1	3	315	0.00	29.929 
21:00	60.9	60.9	60.9	58	46.0	2	5	270	0.00	29.932 
21:05	60.7	60.7	60.7	58	45.8	1	3	315	0.00	29.932 
21:10	60.4	60.4	60.4	58	45.6	1	5	292	0.00	29.932 
21:15	60.2	60.2	60.2	58	45.4	1	4	292	0.00	29.929 
21:20	59.9	59.9	59.9	58	45.1	1	3	315	0.00	29.929 
21:25	59.8	59.8	59.8	58	45.0	1	4	338	0.00	29.929 
21:30	59.6	59.6	59.6	58	44.8	1	4	292	0.00	29.939 
21:35	59.5	59.5	59.5	58	44.7	2	5	292	0.00	29.939 
21:40	59.3	59.3	59.3	58	44.5	2	4	292	0.00	29.939 
21:45	59.0	59.0	59.0	59	44.7	1	6	292	0.00	29.946 
21:50	58.9	58.9	58.9	59	44.6	1	3	292	0.00	29.946 
21:55	58.6	58.6	58.6	60	44.8	1	4	292	0.00	29.946 
22:00	58.4	58.4	58.4	61	45.0	1	3	292	0.00	29.952 
22:05	58.1	58.1	58.1	62	45.1	1	3	338	0.00	29.952 
22:10	58.1	58.1	58.1	62	45.1	1	3	338	0.00	29.952 
22:15	57.8	57.8	57.8	63	45.3	1	4	270	0.00	29.954 
22:20	57.6	57.6	57.6	64	45.5	1	3	270	0.00	29.954 
22:25	57.5	57.5	57.5	65	45.8	1	3	292	0.00	29.954 
22:30	57.5	57.5	57.5	65	45.8	1	4	292	0.00	29.956 
22:35	57.5	57.5	57.5	65	45.8	2	6	292	0.00	29.956 
22:40	57.3	57.3	57.3	65	45.6	1	4	292	0.00	29.956 
22:45	57.2	57.2	57.2	66	45.9	1	6	270	0.00	29.964 
22:50	57.0	57.0	57.0	67	46.2	0	2	270	0.00	29.964 
22:55	57.0	57.0	57.0	67	46.2	1	5	292	0.00	29.964 
23:00	56.9	56.9	56.9	67	46.1	0	3	292	0.00	29.970 
23:05	56.7	56.7	56.7	68	46.3	1	4	292	0.00	29.970 
23:10	56.6	56.6	56.6	68	46.2	1	6	292	0.00	29.970 
23:15	56.5	56.5	56.5	68	46.1	0	3	292	0.00	29.973 
23:20	56.3	56.3	56.3	69	46.3	0	3	292	0.00	29.973 
23:25	56.3	56.3	56.3	69	46.3	0	2	338	0.00	29.973 
23:30	56.3	56.3	56.3	69	46.3	0	2	338	0.00	29.984 
23:35	56.2	56.2	56.2	69	46.2	0	3	338	0.00	29.984 
23:40	56.2	56.2	56.2	69	46.2	0	2	315	0.00	29.984 
23:45	56.0	56.0	56.0	69	46.0	0	3	292	0.00	29.987 
23:50	55.9	55.9	55.9	69	45.9	0	1	292	0.00	29.987 
23:55	55.9	55.9	55.9	69	45.9	0	3	292	0.00	29.987 

CoCoRaHS
IN-AL-39
A2 Web Hosting
Creative Commons License
GoDaddy
search engine by freefind advanced

loaded 2018-11-20 03:42:20 • last modified 2010-11-18 10:43:29
Privacy PolicyDisclaimer
• wx.awcolley.com is powered by PmWiki v.2002016 •
• all content (unless otherwise noted) © 2018 A W Colley